aviador You're here:

SAZN Decoded Metar

NEUQUEN in ARGENTINA
Report Time2017-08-22 16:30:00
UTC Time2017-08-22 16:43:05
Flight Rules lifr LIFR
Wind300° at 69 kt
W.Decomp.*RWY 27: 62.0 kt HW 30.2 kt RCW
W.Rank300° ranks 26
Current wind is above 300° avg. (3.0)
Visibility0600 m
Phenomena:Sand
Clouds:N/A
Expected CloudBase > 12,800 ft AGL from Temp-Dew spread
CeilingNone
Temp24°C (ISA +11)
Dew Point-8°C (11% RH)
AAT-3.8°C
QNH0993 hPa
Density Alt2,864 ft
Elevation889 ft
Report Wrong Elevation
Raw Report
SPECI SAZN 221630Z 30069KT 0600 SA NSC 24/M08 Q0993=

Extra information for SAZN:More info

Metar Taf Metar & Taf Last 4 Metars F.Rules Stats Wind Profile Meteogram Temp Stats Airport Information Weather charts Add Link Nearby VenuesMetar ALERT Operation Metar Decoded Social comments